Realtime data from ferrybox TransPaper


TransPaper. Data shown below have not been quality controlled.

Date Time
(UTC)
Region
(Nr)
Temp
(°C)
Salinity
(PSU)
Cphyl A
(µg/l)
Phyco
(µg/l)
OxyS
(proc)
Turb
(NTU)
2017-11-20 06:33:16 24 8.27 28.29 9.11 3.25 - 1.64
2017-11-20 06:27:47 23 8.38 28.70 9.14 3.25 - 1.58
2017-11-16 20:56:56 24 9.63 27.88 9.33 3.18 - 1.62
2017-11-16 20:55:54 23 9.79 28.54 8.80 3.18 - 1.59
2017-11-09 20:55:51 24 10.34 26.50 9.87 1.76 - 1.59
2017-11-09 20:55:09 23 10.48 26.96 9.09 1.72 - 1.56
2017-11-04 04:38:35 24 11.41 28.09 5.60 0.12 - 1.63
2017-11-04 04:37:53 23 11.47 28.75 5.44 0.12 - 1.63
2017-10-31 04:38:20 24 12.27 31.96 3.92 0.12 - 1.66
2017-10-31 04:36:57 23 12.27 31.93 4.02 0.12 - 1.63
2017-10-23 03:48:19 24 11.97 22.39 8.44 0.09 - 1.71
2017-10-23 03:47:38 23 12.00 22.49 8.21 0.09 - 1.67
2017-10-19 12:31:24 24 12.85 26.19 14.11 0.06 - 1.61
2017-10-19 12:29:20 23 13.01 27.54 13.16 0.06 - 1.58
2017-10-16 03:45:15 24 13.71 29.27 11.70 0.04 - 1.77
2017-10-16 03:44:34 23 13.75 29.71 11.13 0.04 - 1.79
2017-10-12 21:03:57 23 14.09 29.46 10.67 0.03 - 2.18
2017-10-12 21:01:54 24 14.06 29.27 10.63 0.03 - 2.16
2017-10-05 00:24:13 16 13.16 7.35 8.71 0.06 - 0.42
2017-10-04 21:24:35 15 12.09 6.91 8.94 0.06 - 0.40
2017-10-04 17:36:33 14 12.99 6.32 12.03 0.07 - 0.41
2017-10-04 14:41:24 13 13.67 6.16 10.79 0.08 - 0.42
2017-10-04 11:29:56 12 13.23 6.27 9.13 0.07 - 0.43
2017-10-04 09:36:37 11 13.48 6.37 8.31 0.07 - 0.41
2017-10-04 07:41:53 10 13.61 6.39 8.70 0.07 - 0.40